Time;durP1;ratioP1;P1;durP2;ratioP2;P2;SDS_P1;SDS_P2;PMS_P1;PMS_P2;Temp;Humidity;BMP_temperature;BMP_pressure;BME280_temperature;BME280_humidity;BME280_pressure;Samples;Min_cycle;Max_cycle;Signal;HPM_P1;HPM_P2
2023/01/31 00:00:13;;;;;;;12.98;4.75;;;3.00;99.90;;;;;;5093368;28;20044;-71
2023/01/31 00:02:38;;;;;;;12.57;4.70;;;3.00;99.90;;;;;;5094319;28;20067;-71
2023/01/31 00:05:05;;;;;;;17.60;4.90;;;3.00;99.90;;;;;;5092685;28;20032;-70
2023/01/31 00:07:30;;;;;;;13.90;4.55;;;3.00;99.90;;;;;;5092857;28;20025;-71
2023/01/31 00:09:56;;;;;;;11.40;4.35;;;2.90;99.90;;;;;;5092042;28;20066;-70
2023/01/31 00:12:21;;;;;;;12.00;5.07;;;2.90;99.90;;;;;;5092705;28;20063;-71
2023/01/31 00:14:47;;;;;;;10.07;4.40;;;2.90;99.90;;;;;;5093416;28;20047;-71
2023/01/31 00:17:12;;;;;;;15.90;4.90;;;2.80;99.90;;;;;;5090958;28;20153;-70
2023/01/31 00:19:38;;;;;;;10.88;4.20;;;2.80;99.90;;;;;;5092450;28;20035;-71
2023/01/31 00:22:03;;;;;;;11.40;4.78;;;2.70;99.90;;;;;;5091810;28;20503;-71
2023/01/31 00:24:29;;;;;;;11.90;4.72;;;2.70;99.90;;;;;;5093504;28;20024;-71
2023/01/31 00:26:57;;;;;;;11.25;4.40;;;2.60;99.90;;;;;;5071816;28;20044;-71
2023/01/31 00:29:23;;;;;;;10.23;4.53;;;2.50;99.90;;;;;;5068674;28;20376;-69
2023/01/31 00:31:49;;;;;;;10.98;4.40;;;2.50;99.90;;;;;;5072456;28;20032;-70
2023/01/31 00:34:15;;;;;;;14.07;4.22;;;2.50;99.90;;;;;;5070631;28;20032;-71
2023/01/31 00:36:41;;;;;;;12.70;4.55;;;2.50;99.90;;;;;;5072464;28;20028;-69
2023/01/31 00:39:07;;;;;;;16.13;4.18;;;2.60;99.90;;;;;;5070957;28;20437;-69
2023/01/31 00:41:34;;;;;;;14.05;4.57;;;2.60;99.90;;;;;;5072262;28;20029;-69
2023/01/31 00:44:00;;;;;;;12.98;4.95;;;2.50;99.90;;;;;;5070939;28;20111;-69
2023/01/31 00:46:26;;;;;;;16.17;4.80;;;2.50;99.90;;;;;;5071862;28;20111;-69
2023/01/31 00:48:52;;;;;;;10.73;4.45;;;2.60;99.90;;;;;;5071429;28;20025;-69
2023/01/31 00:51:19;;;;;;;12.45;4.38;;;2.50;99.90;;;;;;5070397;28;20043;-69
2023/01/31 00:53:45;;;;;;;9.73;4.43;;;2.50;99.90;;;;;;5071401;28;20024;-69
2023/01/31 00:56:13;;;;;;;11.05;4.10;;;2.50;99.90;;;;;;5070926;28;20108;-70
2023/01/31 00:58:39;;;;;;;12.98;4.28;;;2.50;99.90;;;;;;5071258;28;20448;-69
2023/01/31 01:01:07;;;;;;;9.07;4.25;;;2.40;99.90;;;;;;5052853;28;20136;-69
2023/01/31 01:03:34;;;;;;;11.98;4.47;;;2.40;99.90;;;;;;5070844;28;20036;-69
2023/01/31 01:06:00;;;;;;;17.27;3.92;;;2.40;99.90;;;;;;5066661;28;20063;-69
2023/01/31 01:08:25;;;;;;;8.73;4.25;;;2.30;99.90;;;;;;5072917;28;20587;-69
2023/01/31 01:10:51;;;;;;;10.20;4.65;;;2.30;99.90;;;;;;5070621;28;20038;-70
2023/01/31 01:13:16;;;;;;;15.68;4.15;;;2.30;99.90;;;;;;5070918;28;20020;-70
2023/01/31 01:15:42;;;;;;;15.70;4.05;;;2.30;99.90;;;;;;5072695;28;20521;-70
2023/01/31 01:18:08;;;;;;;13.15;4.50;;;2.20;99.90;;;;;;5071777;28;20761;-70
2023/01/31 01:20:35;;;;;;;13.65;3.75;;;2.30;99.90;;;;;;5072842;28;20073;-70
2023/01/31 01:23:01;;;;;;;10.15;3.97;;;2.30;99.90;;;;;;5065357;28;20025;-70
2023/01/31 01:25:27;;;;;;;14.15;3.67;;;2.20;99.90;;;;;;5072795;28;20086;-70
2023/01/31 01:27:52;;;;;;;11.60;3.88;;;2.10;99.90;;;;;;5072056;28;20021;-70
2023/01/31 01:30:20;;;;;;;13.18;4.22;;;2.10;99.90;;;;;;5062784;28;20465;-70
2023/01/31 01:32:45;;;;;;;9.82;3.60;;;2.10;99.90;;;;;;5072960;28;20025;-70
2023/01/31 01:35:11;;;;;;;10.93;4.00;;;2.10;99.90;;;;;;5071306;28;20607;-70
2023/01/31 01:37:37;;;;;;;14.50;4.05;;;2.10;99.90;;;;;;5072528;28;20028;-70
2023/01/31 01:40:03;;;;;;;10.35;3.58;;;2.10;99.90;;;;;;5064301;28;20028;-70
2023/01/31 01:42:33;;;;;;;10.20;3.83;;;2.10;99.90;;;;;;5069240;28;20100;-71
2023/01/31 01:45:01;;;;;;;11.63;3.67;;;2.00;99.90;;;;;;5071175;28;20470;-70
2023/01/31 01:47:38;;;;;;;9.10;3.85;;;2.00;99.90;;;;;;5071843;28;20020;-70
2023/01/31 01:50:07;;;;;;;14.18;3.95;;;2.00;99.90;;;;;;5071360;28;20418;-70
2023/01/31 01:52:39;;;;;;;7.65;3.95;;;1.90;99.90;;;;;;5072117;28;20466;-70
2023/01/31 01:55:19;;;;;;;10.40;3.92;;;1.90;99.90;;;;;;5070940;28;20109;-71
2023/01/31 01:57:48;;;;;;;13.18;3.88;;;1.90;99.90;;;;;;5070993;28;20616;-71
2023/01/31 02:00:19;;;;;;;7.68;3.50;;;2.00;99.90;;;;;;5073076;28;20074;-71
2023/01/31 02:02:51;;;;;;;13.27;3.75;;;1.90;99.90;;;;;;5072005;28;20096;-71
2023/01/31 02:05:23;;;;;;;10.40;3.75;;;1.80;99.90;;;;;;5067902;28;20029;-71
2023/01/31 02:07:49;;;;;;;12.18;4.13;;;1.80;99.90;;;;;;5069294;28;20032;-71
2023/01/31 02:10:36;;;;;;;15.90;4.20;;;1.80;99.90;;;;;;5071616;28;20060;-71
2023/01/31 02:13:02;;;;;;;11.45;4.50;;;1.90;99.90;;;;;;5070746;28;20043;-70
2023/01/31 02:15:29;;;;;;;15.27;4.45;;;1.90;99.90;;;;;;5068515;28;20029;-71
2023/01/31 02:17:54;;;;;;;15.50;4.10;;;2.00;99.90;;;;;;5070343;28;20377;-71
2023/01/31 02:20:36;;;;;;;10.90;4.03;;;1.90;99.90;;;;;;5071457;28;20038;-71
2023/01/31 02:23:40;;;;;;;12.43;4.10;;;1.90;99.90;;;;;;5070641;28;20414;-71
2023/01/31 02:26:14;;;;;;;12.93;3.67;;;1.90;99.90;;;;;;5082892;28;20044;-71
2023/01/31 02:28:58;;;;;;;17.45;4.10;;;1.80;99.90;;;;;;5091291;28;20362;-71
2023/01/31 02:31:58;;;;;;;10.35;4.30;;;1.90;99.90;;;;;;5079179;28;20035;-71
2023/01/31 02:34:27;;;;;;;;;;;1.80;99.90;;;;;;5084391;28;20028;-71
2023/01/31 02:36:59;;;;;;;11.43;4.47;;;1.90;99.90;;;;;;5090943;28;19911;-71
2023/01/31 02:39:38;;;;;;;10.77;3.85;;;2.00;99.90;;;;;;5087781;28;20020;-71
2023/01/31 02:42:42;;;;;;;11.07;3.70;;;1.90;99.90;;;;;;5088734;28;20028;-71
2023/01/31 02:45:26;;;;;;;10.65;3.95;;;1.90;99.90;;;;;;5087079;28;20110;-71
2023/01/31 02:48:06;;;;;;;13.15;4.03;;;1.90;99.90;;;;;;5089286;28;20043;-71
2023/01/31 02:51:12;;;;;;;8.40;4.13;;;1.90;99.90;;;;;;5089404;28;20043;-71
2023/01/31 02:53:51;;;;;;;15.45;3.78;;;2.00;99.90;;;;;;5066681;28;20055;-71
2023/01/31 02:56:24;;;;;;;11.45;3.97;;;2.00;99.90;;;;;;5089600;28;20024;-71
2023/01/31 02:58:59;;;;;;;12.13;4.18;;;1.90;99.90;;;;;;5071370;28;20024;-71
2023/01/31 03:01:32;;;;;;;11.80;4.00;;;1.90;99.90;;;;;;5087894;28;20043;-70
2023/01/31 03:04:10;;;;;;;10.65;3.78;;;1.90;99.90;;;;;;5085834;28;20081;-71
2023/01/31 03:06:35;;;;;;;17.45;4.28;;;1.90;99.90;;;;;;5088683;28;20366;-71
2023/01/31 03:09:09;;;;;;;13.00;4.40;;;1.90;99.90;;;;;;5088186;28;20035;-71
2023/01/31 03:11:41;;;;;;;12.90;4.43;;;1.90;99.90;;;;;;5086702;28;20031;-71
2023/01/31 03:14:48;;;;;;;12.02;4.47;;;1.90;99.90;;;;;;5087603;28;20028;-71
2023/01/31 03:17:35;;;;;;;14.25;5.55;;;1.90;99.90;;;;;;5090792;28;20058;-71
2023/01/31 03:20:14;;;;;;;16.08;4.43;;;1.90;99.90;;;;;;5088916;28;20025;-71
2023/01/31 03:22:48;;;;;;;11.65;4.32;;;2.00;99.90;;;;;;5086843;28;20089;-69
2023/01/31 03:25:18;;;;;;;12.65;4.20;;;2.00;99.90;;;;;;5082323;28;20052;-70
2023/01/31 03:27:46;;;;;;;;;;;2.00;99.90;;;;;;5069455;28;20063;-70
2023/01/31 03:30:17;;;;;;;13.98;4.28;;;2.00;99.90;;;;;;5068374;28;19908;-70
2023/01/31 03:32:50;;;;;;;10.75;4.00;;;2.00;99.90;;;;;;5071340;28;20036;-70
2023/01/31 03:35:16;;;;;;;13.30;4.80;;;2.10;99.90;;;;;;5056083;28;20358;-69
2023/01/31 03:37:48;;;;;;;11.57;4.10;;;2.10;99.90;;;;;;5073331;28;20020;-70
2023/01/31 03:40:23;;;;;;;14.85;5.07;;;2.10;99.90;;;;;;5071629;28;20032;-70
2023/01/31 03:43:11;;;;;;;12.52;5.03;;;2.10;99.90;;;;;;5072891;28;20031;-70
2023/01/31 03:46:02;;;;;;;13.18;4.63;;;2.10;99.90;;;;;;5073055;28;20381;-70
2023/01/31 03:48:34;;;;;;;13.40;4.93;;;2.10;99.90;;;;;;5071619;28;20322;-70
2023/01/31 03:51:03;;;;;;;10.68;4.55;;;2.10;99.90;;;;;;5069737;28;20020;-70
2023/01/31 03:53:40;;;;;;;15.23;4.47;;;2.10;99.90;;;;;;5074503;28;20031;-70
2023/01/31 03:56:15;;;;;;;14.65;4.35;;;2.10;99.90;;;;;;5070550;28;20059;-70
2023/01/31 03:58:49;;;;;;;10.85;4.32;;;2.10;99.90;;;;;;5070787;28;20095;-70
2023/01/31 04:01:17;;;;;;;15.73;4.95;;;2.10;99.90;;;;;;5070319;28;20078;-70
2023/01/31 04:03:53;;;;;;;12.10;4.22;;;2.10;99.90;;;;;;5072714;28;20028;-70
2023/01/31 04:06:18;;;;;;;17.90;4.60;;;2.10;99.90;;;;;;5071790;28;20035;-70
2023/01/31 04:08:44;;;;;;;13.05;4.32;;;2.10;99.90;;;;;;5073353;28;20394;-70
2023/01/31 04:11:13;;;;;;;14.00;4.80;;;2.10;99.90;;;;;;5073727;28;20016;-71
2023/01/31 04:13:39;;;;;;;14.55;4.72;;;2.00;99.90;;;;;;5072718;28;20067;-71
2023/01/31 04:16:05;;;;;;;15.07;4.95;;;2.00;99.90;;;;;;5073662;28;20036;-71
2023/01/31 04:18:31;;;;;;;16.25;5.10;;;2.00;99.90;;;;;;5072400;28;20029;-71
2023/01/31 04:20:57;;;;;;;13.13;4.57;;;1.90;99.90;;;;;;5072714;28;20474;-71
2023/01/31 04:23:23;;;;;;;15.25;5.05;;;1.80;99.90;;;;;;5071991;28;20078;-71
2023/01/31 04:25:51;;;;;;;17.17;4.60;;;1.70;99.90;;;;;;5070443;28;20054;-71
2023/01/31 04:28:17;;;;;;;19.17;4.50;;;1.60;99.90;;;;;;5072183;28;20082;-71
2023/01/31 04:30:42;;;;;;;21.83;5.45;;;1.50;99.90;;;;;;5052654;28;20405;-71
2023/01/31 04:33:08;;;;;;;15.15;3.67;;;1.50;99.90;;;;;;5070064;28;20087;-71
2023/01/31 04:35:33;;;;;;;15.02;4.57;;;1.50;99.90;;;;;;5072533;28;20057;-71
2023/01/31 04:37:59;;;;;;;16.65;4.43;;;1.40;99.90;;;;;;5071087;28;20029;-71
2023/01/31 04:40:25;;;;;;;17.80;5.07;;;1.30;99.90;;;;;;5072316;28;20040;-71
2023/01/31 04:42:50;;;;;;;13.48;4.60;;;1.30;99.90;;;;;;5072108;28;20454;-71
2023/01/31 04:45:16;;;;;;;13.45;4.88;;;1.20;99.90;;;;;;5071549;28;20154;-71
2023/01/31 04:47:41;;;;;;;19.40;5.07;;;1.10;99.90;;;;;;5067317;28;20025;-71
2023/01/31 04:50:07;;;;;;;17.52;5.30;;;1.10;99.90;;;;;;5071318;28;20024;-71
2023/01/31 04:52:33;;;;;;;13.00;4.72;;;1.10;99.90;;;;;;5072395;28;20155;-71
2023/01/31 04:54:59;;;;;;;15.50;5.05;;;1.10;99.90;;;;;;5060937;28;20100;-71
2023/01/31 04:57:24;;;;;;;14.48;5.55;;;1.10;99.90;;;;;;5064008;28;20016;-71
2023/01/31 04:59:51;;;;;;;18.67;5.38;;;1.00;99.90;;;;;;5071346;28;20032;-71
2023/01/31 05:02:16;;;;;;;17.38;5.93;;;1.10;99.90;;;;;;5071817;28;20033;-71
2023/01/31 05:04:42;;;;;;;18.02;5.65;;;1.10;99.90;;;;;;5070079;28;20024;-71
2023/01/31 05:07:08;;;;;;;15.50;5.22;;;1.20;99.90;;;;;;5069823;28;20024;-71
2023/01/31 05:09:33;;;;;;;19.17;5.28;;;1.30;99.90;;;;;;5071058;28;20052;-71
2023/01/31 05:11:59;;;;;;;18.30;5.90;;;1.30;99.90;;;;;;5071566;28;20440;-71
2023/01/31 05:14:24;;;;;;;16.05;4.88;;;1.40;99.90;;;;;;5071837;28;20032;-71
2023/01/31 05:16:50;;;;;;;21.77;5.80;;;1.50;99.90;;;;;;5071585;28;20377;-71
2023/01/31 05:19:16;;;;;;;18.83;4.63;;;1.50;99.90;;;;;;5069333;28;20036;-70
2023/01/31 05:21:54;;;;;;;15.13;5.50;;;1.60;99.90;;;;;;5069347;28;20486;-70
2023/01/31 05:24:23;;;;;;;12.63;4.35;;;1.70;99.90;;;;;;5080520;28;20407;-70
2023/01/31 05:26:50;;;;;;;28.77;6.73;;;1.80;99.90;;;;;;5037855;28;1106876;-71
2023/01/31 05:29:16;;;;;;;18.67;4.68;;;1.80;99.90;;;;;;5077361;28;20071;-70
2023/01/31 05:31:43;;;;;;;15.15;4.25;;;1.90;99.90;;;;;;5065859;28;20427;-70
2023/01/31 05:34:10;;;;;;;17.20;5.90;;;1.90;99.90;;;;;;5068456;28;20818;-70
2023/01/31 05:36:36;;;;;;;17.23;5.47;;;1.90;99.90;;;;;;5071422;28;20438;-70
2023/01/31 05:39:01;;;;;;;14.90;4.45;;;1.90;99.90;;;;;;5067777;28;20107;-71
2023/01/31 05:41:27;;;;;;;15.23;5.05;;;1.90;99.90;;;;;;5068760;28;20029;-70
2023/01/31 05:43:52;;;;;;;18.67;4.97;;;1.80;99.90;;;;;;5069957;28;20431;-71
2023/01/31 05:46:18;;;;;;;14.82;4.38;;;1.80;99.90;;;;;;5070795;28;20063;-71
2023/01/31 05:48:44;;;;;;;11.48;5.03;;;1.60;99.90;;;;;;5070355;28;20017;-71
2023/01/31 05:51:09;;;;;;;14.35;5.63;;;1.50;99.90;;;;;;5070255;28;20033;-71
2023/01/31 05:53:35;;;;;;;17.33;5.70;;;1.50;99.90;;;;;;5070094;28;20457;-71
2023/01/31 05:56:00;;;;;;;22.27;6.13;;;1.30;99.90;;;;;;5066925;28;20040;-71
2023/01/31 05:58:26;;;;;;;19.80;5.18;;;1.20;99.90;;;;;;5070187;28;20052;-71
2023/01/31 06:00:55;;;;;;;22.60;5.60;;;1.20;99.90;;;;;;5070538;28;20389;-71
2023/01/31 06:03:21;;;;;;;21.27;6.47;;;1.10;99.90;;;;;;5064711;28;20021;-71
2023/01/31 06:05:46;;;;;;;15.98;6.22;;;1.00;99.90;;;;;;5071513;28;20112;-70
2023/01/31 06:08:12;;;;;;;15.23;6.32;;;0.90;99.90;;;;;;5070561;28;20025;-71
2023/01/31 06:10:38;;;;;;;12.93;5.55;;;0.80;99.90;;;;;;5072016;28;20037;-71
2023/01/31 06:13:06;;;;;;;17.15;6.07;;;0.80;99.90;;;;;;5067158;28;20412;-71
2023/01/31 06:15:32;;;;;;;15.18;5.50;;;0.80;99.90;;;;;;5071748;28;20523;-71
2023/01/31 06:17:58;;;;;;;12.45;6.75;;;0.70;99.90;;;;;;5070461;28;20119;-70
2023/01/31 06:20:25;;;;;;;15.10;5.60;;;0.60;99.90;;;;;;5071692;28;20041;-70
2023/01/31 06:22:50;;;;;;;17.90;6.32;;;0.60;99.90;;;;;;5074932;28;20025;-71
2023/01/31 06:25:16;;;;;;;14.43;5.28;;;0.60;99.90;;;;;;5070726;28;20055;-70
2023/01/31 06:27:42;;;;;;;13.13;5.63;;;0.50;99.90;;;;;;5068936;28;20480;-70
2023/01/31 06:30:09;;;;;;;23.02;5.82;;;0.50;99.90;;;;;;5069451;28;20055;-71
2023/01/31 06:32:35;;;;;;;13.25;5.97;;;0.40;99.90;;;;;;5070043;28;20052;-71
2023/01/31 06:35:02;;;;;;;9.80;5.10;;;0.50;99.90;;;;;;5069830;28;20029;-70
2023/01/31 06:37:27;;;;;;;17.70;6.53;;;0.40;99.90;;;;;;5071584;28;20096;-70
2023/01/31 06:39:53;;;;;;;11.93;6.20;;;0.40;99.90;;;;;;5069754;28;20513;-71
2023/01/31 06:42:18;;;;;;;19.23;6.05;;;0.50;99.90;;;;;;5071624;28;20044;-70
2023/01/31 06:44:44;;;;;;;15.13;5.22;;;0.40;99.90;;;;;;5070646;28;20125;-70
2023/01/31 06:47:11;;;;;;;13.10;5.10;;;0.40;99.90;;;;;;5067299;28;20017;-71
2023/01/31 06:49:37;;;;;;;15.98;5.68;;;0.50;99.90;;;;;;5070566;28;20017;-71
2023/01/31 06:52:03;;;;;;;17.75;5.68;;;0.50;99.90;;;;;;5068596;28;20109;-70
2023/01/31 06:54:28;;;;;;;15.93;5.55;;;0.60;99.90;;;;;;5072125;28;20033;-71
2023/01/31 06:56:54;;;;;;;14.13;5.63;;;0.70;99.90;;;;;;5070141;28;20374;-70
2023/01/31 06:59:22;;;;;;;16.92;5.78;;;0.80;99.90;;;;;;5072104;28;20032;-69
2023/01/31 07:01:48;;;;;;;15.32;4.68;;;0.90;99.90;;;;;;5070779;28;20427;-69
2023/01/31 07:04:13;;;;;;;13.02;5.18;;;0.90;99.90;;;;;;5069209;28;20085;-68
2023/01/31 07:06:39;;;;;;;27.27;5.53;;;0.80;99.90;;;;;;5070720;28;20069;-68
2023/01/31 07:09:04;;;;;;;15.52;5.28;;;0.90;99.90;;;;;;5068079;28;20037;-68
2023/01/31 07:11:30;;;;;;;17.33;4.40;;;0.90;99.90;;;;;;5064113;28;20035;-69
2023/01/31 07:13:56;;;;;;;17.20;5.47;;;0.80;99.90;;;;;;5068287;28;20035;-69
2023/01/31 07:16:24;;;;;;;16.38;5.40;;;0.80;99.90;;;;;;5058526;28;20029;-68
2023/01/31 07:18:53;;;;;;;22.60;5.15;;;0.80;99.90;;;;;;5070020;28;20382;-68
2023/01/31 07:21:19;;;;;;;14.18;5.07;;;0.90;99.90;;;;;;5061694;28;20068;-68
2023/01/31 07:23:45;;;;;;;14.60;5.13;;;0.90;99.90;;;;;;5070186;28;20117;-68
2023/01/31 07:26:10;;;;;;;15.65;4.85;;;0.90;99.90;;;;;;5083105;28;20492;-68
2023/01/31 07:28:36;;;;;;;16.85;5.43;;;1.00;99.90;;;;;;5101563;28;20024;-69
2023/01/31 07:31:06;;;;;;;14.45;4.63;;;1.00;99.90;;;;;;5092585;28;20056;-68
2023/01/31 07:33:33;;;;;;;11.77;4.82;;;1.00;99.90;;;;;;5095796;28;20489;-68
2023/01/31 07:36:02;;;;;;;21.02;6.25;;;1.00;99.90;;;;;;5089858;28;20073;-69
2023/01/31 07:38:27;;;;;;;11.35;4.22;;;1.00;99.90;;;;;;5082687;28;20032;-68
2023/01/31 07:40:56;;;;;;;16.15;4.63;;;1.10;99.90;;;;;;5086762;28;20039;-71
2023/01/31 07:43:22;;;;;;;21.60;5.22;;;1.10;99.90;;;;;;5062078;28;20115;-68
2023/01/31 07:45:48;;;;;;;21.60;4.85;;;1.10;99.90;;;;;;5095819;28;20112;-68
2023/01/31 07:48:13;;;;;;;16.35;4.32;;;1.10;99.90;;;;;;5089259;28;20024;-68
2023/01/31 07:50:39;;;;;;;13.82;5.03;;;1.20;99.90;;;;;;5090257;28;20103;-68
2023/01/31 07:53:04;;;;;;;20.70;4.93;;;1.20;99.90;;;;;;5087884;28;20032;-68
2023/01/31 07:55:30;;;;;;;15.57;4.80;;;1.30;99.90;;;;;;5086512;28;20453;-68
2023/01/31 07:57:55;;;;;;;15.68;4.90;;;1.30;99.90;;;;;;5089395;28;20036;-68
2023/01/31 08:05:49;;;;;;;14.15;5.22;;;1.40;99.90;;;;;;5090310;28;20028;-67
2023/01/31 08:08:15;;;;;;;22.98;4.72;;;1.50;99.90;;;;;;5090160;28;20051;-67
2023/01/31 08:10:40;;;;;;;16.27;5.45;;;1.50;99.90;;;;;;5083722;28;20035;-67
2023/01/31 08:13:06;;;;;;;11.45;4.72;;;1.60;99.90;;;;;;5077917;28;20031;-68
2023/01/31 08:15:32;;;;;;;11.18;4.15;;;1.70;99.90;;;;;;5090167;28;20103;-67
2023/01/31 08:17:58;;;;;;;11.82;4.63;;;1.80;99.90;;;;;;5087950;28;20485;-67
2023/01/31 08:20:23;;;;;;;19.80;5.25;;;2.00;99.90;;;;;;5093814;28;20044;-67
2023/01/31 08:22:49;;;;;;;11.45;4.07;;;2.10;99.90;;;;;;5093678;28;20852;-68
2023/01/31 08:25:15;;;;;;;17.10;4.30;;;2.30;99.90;;;;;;5091841;28;20050;-67
2023/01/31 08:27:40;;;;;;;19.92;4.95;;;2.40;99.90;;;;;;5093753;28;20024;-67
2023/01/31 08:30:06;;;;;;;17.30;4.72;;;2.70;99.90;;;;;;5091687;28;20078;-68
2023/01/31 08:32:32;;;;;;;16.63;4.60;;;2.70;99.90;;;;;;5091998;28;20373;-67
2023/01/31 08:34:58;;;;;;;16.52;4.18;;;2.90;99.90;;;;;;5092282;28;20036;-68
2023/01/31 08:37:23;;;;;;;13.00;4.13;;;3.00;99.90;;;;;;5071459;28;20119;-68
2023/01/31 08:39:49;;;;;;;21.55;6.32;;;3.10;99.90;;;;;;5090959;28;20035;-68
2023/01/31 08:42:14;;;;;;;17.75;4.05;;;3.20;99.90;;;;;;5093634;28;20425;-68
2023/01/31 08:44:42;;;;;;;14.02;4.75;;;3.40;99.90;;;;;;5094583;28;20036;-68
2023/01/31 08:47:08;;;;;;;12.00;4.10;;;3.40;99.90;;;;;;5092393;28;20115;-68
2023/01/31 08:49:35;;;;;;;13.48;4.47;;;3.50;99.90;;;;;;5093299;28;20579;-68
2023/01/31 08:52:01;;;;;;;11.68;3.65;;;3.70;99.90;;;;;;5092570;28;20165;-68
2023/01/31 08:54:26;;;;;;;11.35;3.67;;;3.70;99.90;;;;;;5092604;28;20111;-68
2023/01/31 08:56:52;;;;;;;11.15;3.83;;;3.70;99.90;;;;;;5093040;28;20028;-68
2023/01/31 08:59:18;;;;;;;16.50;4.43;;;3.80;99.90;;;;;;5093066;28;20024;-67
2023/01/31 09:01:45;;;;;;;20.15;4.00;;;3.80;99.90;;;;;;5093412;28;20028;-67
2023/01/31 09:04:11;;;;;;;14.57;3.97;;;3.70;99.90;;;;;;5074229;28;20016;-67
2023/01/31 09:06:36;;;;;;;11.95;3.65;;;3.80;99.90;;;;;;5092798;28;20039;-67
2023/01/31 09:09:02;;;;;;;8.35;3.22;;;3.80;99.90;;;;;;5092214;28;20091;-68
2023/01/31 09:11:29;;;;;;;15.05;4.00;;;3.90;99.90;;;;;;5093502;28;20385;-68
2023/01/31 09:13:55;;;;;;;15.38;4.40;;;3.80;99.90;;;;;;5095267;28;20028;-67
2023/01/31 09:16:20;;;;;;;23.70;4.97;;;3.90;99.90;;;;;;5099404;28;20097;-67
2023/01/31 09:18:46;;;;;;;13.32;3.95;;;4.00;99.90;;;;;;5092200;28;20433;-66
2023/01/31 09:21:19;;;;;;;13.75;4.78;;;4.00;99.90;;;;;;5085547;28;20123;-68
2023/01/31 09:23:45;;;;;;;10.15;3.22;;;4.10;99.90;;;;;;5092187;28;20112;-67
2023/01/31 09:26:12;;;;;;;12.27;3.70;;;4.10;99.90;;;;;;5091799;28;20098;-66
2023/01/31 09:28:41;;;;;;;18.92;4.47;;;4.30;99.90;;;;;;5091959;28;20036;-67
2023/01/31 09:31:10;;;;;;;12.68;3.92;;;4.50;99.90;;;;;;5091671;28;20028;-67
2023/01/31 09:33:36;;;;;;;8.50;3.90;;;4.60;99.90;;;;;;5103296;28;20077;-68
2023/01/31 09:36:05;;;;;;;10.48;3.65;;;4.70;99.90;;;;;;5098796;28;20032;-68
2023/01/31 09:38:31;;;;;;;12.70;4.03;;;4.80;99.90;;;;;;5094318;28;20020;-68
2023/01/31 09:41:00;;;;;;;15.32;3.97;;;4.80;99.90;;;;;;5091467;28;20039;-68
2023/01/31 09:43:33;;;;;;;14.75;4.90;;;4.90;99.90;;;;;;5073930;28;20031;-68
2023/01/31 09:46:03;;;;;;;14.52;4.15;;;5.10;99.90;;;;;;5091991;28;20024;-68
2023/01/31 09:48:34;;;;;;;15.00;4.78;;;5.10;99.90;;;;;;5091825;28;20163;-68
2023/01/31 09:51:01;;;;;;;10.82;3.15;;;5.10;99.90;;;;;;5096917;28;20028;-68
2023/01/31 09:53:32;;;;;;;13.13;3.22;;;5.20;99.90;;;;;;5092865;28;20483;-68
2023/01/31 09:56:18;;;;;;;8.70;3.10;;;5.30;99.90;;;;;;5091340;28;20038;-68
2023/01/31 09:59:01;;;;;;;10.85;2.85;;;5.40;99.90;;;;;;5060399;28;20516;-68
2023/01/31 10:02:04;;;;;;;13.20;3.33;;;5.50;99.90;;;;;;5083378;28;20473;-68
2023/01/31 10:04:43;;;;;;;14.23;3.40;;;5.40;99.90;;;;;;5065595;28;20032;-68
2023/01/31 10:07:18;;;;;;;14.53;4.37;;;5.40;99.90;;;;;;5090928;28;20835;-68
2023/01/31 10:09:50;;;;;;;11.25;3.72;;;5.40;99.90;;;;;;5091642;28;20255;-68
2023/01/31 10:12:21;;;;;;;13.90;3.65;;;5.50;99.90;;;;;;5088450;28;20024;-68
2023/01/31 10:15:03;;;;;;;11.38;3.35;;;5.50;99.90;;;;;;5091473;28;20035;-68
2023/01/31 10:17:39;;;;;;;18.42;3.90;;;5.40;99.90;;;;;;5082590;28;20024;-68
2023/01/31 10:20:45;;;;;;;10.10;2.53;;;5.50;99.90;;;;;;5093662;28;20024;-68
2023/01/31 10:23:22;;;;;;;11.65;3.70;;;5.50;99.90;;;;;;5091905;28;20094;-68
2023/01/31 10:25:54;;;;;;;12.75;3.33;;;5.70;99.90;;;;;;5100371;28;20132;-68
2023/01/31 10:28:30;;;;;;;10.48;3.88;;;5.80;99.90;;;;;;5097035;28;20039;-68
2023/01/31 10:31:13;;;;;;;14.05;3.45;;;5.80;99.90;;;;;;5090731;28;20032;-67
2023/01/31 10:33:52;;;;;;;15.05;3.47;;;5.80;99.90;;;;;;5091293;28;20500;-68
2023/01/31 10:36:32;;;;;;;11.38;3.53;;;5.60;99.90;;;;;;5096679;28;20043;-68
2023/01/31 10:39:16;;;;;;;11.98;3.20;;;5.60;99.90;;;;;;5096099;28;20039;-68
2023/01/31 10:42:00;;;;;;;12.85;2.90;;;5.60;99.90;;;;;;5095120;28;20428;-68
2023/01/31 10:44:52;;;;;;;13.95;3.17;;;5.70;99.90;;;;;;5101038;28;20045;-68
2023/01/31 10:47:19;;;;;;;14.18;2.90;;;5.90;99.90;;;;;;5097456;28;20051;-68
2023/01/31 10:49:49;;;;;;;12.70;2.72;;;5.90;99.90;;;;;;5093663;28;20016;-68
2023/01/31 10:52:48;;;;;;;11.02;2.85;;;5.90;99.90;;;;;;5091889;28;20032;-68
2023/01/31 10:55:59;;;;;;;10.63;2.85;;;5.90;99.90;;;;;;5089263;28;20138;-68
2023/01/31 10:58:25;;;;;;;11.85;3.15;;;5.90;99.90;;;;;;5054288;28;20037;-68
2023/01/31 11:00:50;;;;;;;13.20;2.60;;;6.00;99.90;;;;;;5090260;28;20040;-68
2023/01/31 11:03:17;;;;;;;14.80;3.47;;;6.20;99.90;;;;;;5084643;28;20028;-68
2023/01/31 11:05:57;;;;;;;10.52;2.75;;;6.20;99.90;;;;;;5090644;28;20492;-68
2023/01/31 11:08:45;;;;;;;10.60;2.63;;;6.20;99.90;;;;;;5090037;28;20028;-68
2023/01/31 11:11:15;;;;;;;12.32;2.90;;;6.20;99.90;;;;;;5088144;28;20476;-68
2023/01/31 11:13:55;;;;;;;7.57;2.92;;;6.30;99.90;;;;;;5089593;28;20024;-68
2023/01/31 11:16:22;;;;;;;7.13;2.25;;;6.40;99.90;;;;;;5091149;28;20513;-68
2023/01/31 11:18:49;;;;;;;20.38;3.00;;;6.50;99.90;;;;;;5087718;28;20043;-68
2023/01/31 11:21:41;;;;;;;10.90;3.00;;;6.70;99.90;;;;;;5089642;28;20028;-68
2023/01/31 11:24:16;;;;;;;8.98;2.63;;;7.00;99.90;;;;;;5079058;28;20396;-68
2023/01/31 11:26:52;;;;;;;13.35;2.92;;;6.90;99.90;;;;;;5091093;28;20070;-68
2023/01/31 11:29:25;;;;;;;15.65;3.42;;;6.90;99.90;;;;;;5090203;28;20153;-68
2023/01/31 11:31:51;;;;;;;14.18;3.33;;;6.80;99.90;;;;;;5090775;28;20020;-69
2023/01/31 11:34:23;;;;;;;10.88;2.65;;;6.70;99.90;;;;;;5088290;28;20028;-69
2023/01/31 11:36:49;;;;;;;12.07;2.75;;;6.60;99.90;;;;;;5089686;28;20032;-68
2023/01/31 11:39:38;;;;;;;9.82;2.70;;;6.50;99.90;;;;;;5089341;28;20561;-68
2023/01/31 11:42:05;;;;;;;9.50;2.97;;;6.60;99.90;;;;;;5088409;28;20089;-68
2023/01/31 11:44:31;;;;;;;15.35;2.85;;;6.60;99.90;;;;;;5096685;28;20066;-68
2023/01/31 11:47:03;;;;;;;16.55;2.67;;;6.70;99.90;;;;;;5085589;28;20032;-68
2023/01/31 11:49:41;;;;;;;10.95;2.65;;;6.80;99.90;;;;;;5089347;28;20031;-68
2023/01/31 11:52:20;;;;;;;10.32;2.90;;;6.80;99.90;;;;;;5096513;28;20039;-69
2023/01/31 11:54:49;;;;;;;11.32;2.90;;;6.70;99.90;;;;;;5093428;28;20028;-68
2023/01/31 11:57:20;;;;;;;19.58;2.67;;;6.70;99.90;;;;;;5104178;28;20020;-70
2023/01/31 11:59:49;;;;;;;9.63;1.90;;;6.70;99.90;;;;;;5092119;28;20032;-68
2023/01/31 12:02:26;;;;;;;7.95;2.45;;;6.80;99.90;;;;;;5094443;28;20036;-68
2023/01/31 12:04:52;;;;;;;8.18;2.22;;;6.80;99.90;;;;;;5089388;28;20651;-68
2023/01/31 12:07:39;;;;;;;9.73;2.10;;;7.00;99.90;;;;;;5094255;28;20028;-68
2023/01/31 12:10:32;;;;;;;16.67;2.63;;;7.00;99.90;;;;;;5092593;28;20530;-68
2023/01/31 12:13:00;;;;;;;11.80;2.50;;;7.00;99.90;;;;;;5094843;28;20484;-68
2023/01/31 12:15:28;;;;;;;12.80;2.45;;;7.10;99.90;;;;;;5094199;28;20024;-68
2023/01/31 12:17:54;;;;;;;10.90;2.30;;;7.10;99.90;;;;;;5093335;28;20033;-69
2023/01/31 12:20:43;;;;;;;12.23;2.50;;;7.10;99.90;;;;;;5093578;28;20076;-67
2023/01/31 12:23:43;;;;;;;11.57;2.33;;;7.10;99.90;;;;;;5092719;28;20032;-68
2023/01/31 12:26:30;;;;;;;12.30;2.87;;;7.00;99.90;;;;;;5074270;28;20059;-68
2023/01/31 12:29:08;;;;;;;11.18;2.20;;;7.00;99.90;;;;;;5089212;28;20268;-68
2023/01/31 12:32:02;;;;;;;10.60;2.67;;;6.90;99.90;;;;;;5094644;28;20032;-68
2023/01/31 12:34:41;;;;;;;4.75;1.60;;;7.00;99.90;;;;;;5088898;28;20123;-68
2023/01/31 12:37:18;;;;;;;5.40;1.92;;;6.90;99.90;;;;;;5089470;28;20032;-68
2023/01/31 12:40:04;;;;;;;6.93;1.75;;;7.00;99.90;;;;;;5092973;28;20031;-68
2023/01/31 12:42:57;;;;;;;13.52;1.90;;;7.10;99.90;;;;;;5075308;28;20127;-68
2023/01/31 12:45:41;;;;;;;9.68;2.03;;;7.30;99.90;;;;;;5093177;28;20066;-68
2023/01/31 12:48:28;;;;;;;12.65;2.08;;;7.50;99.90;;;;;;5079163;28;20093;-69
2023/01/31 12:51:14;;;;;;;6.30;1.75;;;7.70;99.90;;;;;;5091944;28;20032;-69
2023/01/31 12:53:45;;;;;;;12.35;1.92;;;7.60;99.90;;;;;;5045985;28;20051;-68
2023/01/31 12:56:19;;;;;;;8.93;2.10;;;7.60;99.90;;;;;;5092607;28;20201;-68
2023/01/31 12:58:49;;;;;;;9.20;2.30;;;7.50;99.90;;;;;;5086015;28;20437;-68
2023/01/31 13:01:32;;;;;;;;;;;7.40;99.90;;;;;;5087701;28;20044;-67
2023/01/31 13:03:58;;;;;;;6.78;1.77;;;7.20;99.90;;;;;;5106010;28;19923;-68
2023/01/31 13:06:30;;;;;;;8.77;1.88;;;6.90;99.90;;;;;;5091973;28;20036;-69
2023/01/31 13:09:01;;;;;;;9.27;2.65;;;6.60;99.90;;;;;;5073616;28;20039;-69
2023/01/31 13:11:34;;;;;;;11.57;2.15;;;6.40;99.90;;;;;;5082409;28;20032;-67